createdAt,value
2023-05-06T00:00:34.531Z,92.00
2023-05-06T00:03:21.660Z,91.80
2023-05-06T00:06:08.983Z,92.10
2023-05-06T00:08:56.095Z,92.20
2023-05-06T00:11:43.184Z,92.60
2023-05-06T00:14:30.418Z,92.50
2023-05-06T00:17:17.842Z,92.60
2023-05-06T00:20:06.098Z,92.50
2023-05-06T00:22:53.333Z,92.70
2023-05-06T00:25:40.468Z,92.70
2023-05-06T00:28:27.664Z,92.60
2023-05-06T00:31:14.757Z,92.50
2023-05-06T00:34:01.805Z,92.50
2023-05-06T00:36:48.810Z,92.70
2023-05-06T00:39:36.102Z,92.60
2023-05-06T00:42:23.532Z,92.70
2023-05-06T00:45:11.389Z,92.50
2023-05-06T00:47:59.108Z,92.00
2023-05-06T00:50:46.859Z,91.70
2023-05-06T00:53:33.897Z,91.50
2023-05-06T00:56:21.068Z,91.20
2023-05-06T00:59:08.251Z,91.30
2023-05-06T01:01:55.487Z,91.20
2023-05-06T01:04:42.740Z,91.30
2023-05-06T01:07:57.799Z,90.80
2023-05-06T01:11:07.870Z,91.10
2023-05-06T01:14:02.559Z,90.60
2023-05-06T01:16:54.713Z,90.00
2023-05-06T01:19:49.655Z,89.80
2023-05-06T01:22:37.726Z,89.70
2023-05-06T01:25:24.760Z,89.60
2023-05-06T01:28:13.187Z,89.60
2023-05-06T01:31:08.337Z,89.10
2023-05-06T01:33:58.461Z,89.10
2023-05-06T01:37:04.103Z,89.00
2023-05-06T01:39:55.946Z,89.00
2023-05-06T01:42:50.701Z,89.00
2023-05-06T01:45:39.287Z,89.10
2023-05-06T01:48:30.067Z,89.00
2023-05-06T01:51:17.147Z,89.00
2023-05-06T01:54:04.744Z,89.00
2023-05-06T01:56:51.783Z,89.00
2023-05-06T01:59:38.838Z,89.50
2023-05-06T02:02:25.978Z,89.50
2023-05-06T02:05:13.349Z,89.40
2023-05-06T02:08:05.299Z,89.60
2023-05-06T02:10:52.944Z,89.80
2023-05-06T02:13:41.179Z,90.00
2023-05-06T02:16:29.768Z,90.50
2023-05-06T02:19:17.044Z,90.10
2023-05-06T02:22:04.137Z,89.70
2023-05-06T02:24:51.340Z,89.70
2023-05-06T02:27:38.880Z,89.80
2023-05-06T02:30:25.944Z,89.80
2023-05-06T02:33:13.051Z,90.10
2023-05-06T02:36:00.360Z,90.20
2023-05-06T02:38:47.351Z,90.50
2023-05-06T02:41:34.362Z,90.90
2023-05-06T02:44:21.552Z,91.10
2023-05-06T02:47:08.611Z,91.30
2023-05-06T02:49:55.787Z,91.50
2023-05-06T02:52:42.918Z,91.80
2023-05-06T02:55:30.582Z,91.80
2023-05-06T02:58:17.610Z,92.00
2023-05-06T03:01:04.930Z,92.20
2023-05-06T03:03:52.181Z,92.30
2023-05-06T03:06:39.376Z,92.60
2023-05-06T03:09:26.508Z,92.60
2023-05-06T03:12:14.393Z,92.70
2023-05-06T03:15:01.528Z,92.80
2023-05-06T03:17:49.278Z,93.10
2023-05-06T03:20:36.902Z,93.30
2023-05-06T03:23:24.475Z,93.40
2023-05-06T03:26:11.594Z,93.20
2023-05-06T03:28:59.056Z,93.10
2023-05-06T03:31:50.142Z,93.00
2023-05-06T03:34:38.739Z,92.80
2023-05-06T03:37:26.968Z,92.70
2023-05-06T03:40:16.882Z,92.90
2023-05-06T03:43:04.130Z,93.20
2023-05-06T03:45:51.395Z,93.30
2023-05-06T03:48:38.687Z,93.30
2023-05-06T03:51:30.747Z,93.30
2023-05-06T03:54:18.306Z,93.50
2023-05-06T03:57:05.634Z,93.60
2023-05-06T03:59:53.614Z,93.70
2023-05-06T04:02:42.574Z,93.90
2023-05-06T04:05:32.323Z,94.00
2023-05-06T04:08:19.429Z,94.00
2023-05-06T04:11:08.140Z,94.00
2023-05-06T04:13:56.783Z,94.10
2023-05-06T04:16:44.088Z,94.10
2023-05-06T04:19:32.128Z,94.00
2023-05-06T04:22:19.392Z,94.20
2023-05-06T04:25:07.321Z,94.00
2023-05-06T04:27:56.100Z,93.90
2023-05-06T04:30:45.373Z,94.00
2023-05-06T04:33:33.874Z,94.00
2023-05-06T04:36:23.886Z,94.00
2023-05-06T04:39:27.440Z,94.00
2023-05-06T04:42:16.236Z,93.80
2023-05-06T04:45:11.645Z,94.00
2023-05-06T04:48:00.736Z,94.00
2023-05-06T04:50:48.529Z,94.00
2023-05-06T04:53:35.775Z,93.90
2023-05-06T04:56:23.071Z,93.90
2023-05-06T04:59:10.624Z,94.00
2023-05-06T05:01:58.702Z,94.00
2023-05-06T05:04:46.009Z,94.20
2023-05-06T05:07:33.149Z,94.40
2023-05-06T05:10:20.580Z,94.60
2023-05-06T05:13:09.892Z,94.60
2023-05-06T05:15:57.223Z,94.40
2023-05-06T05:18:47.467Z,94.10
2023-05-06T05:21:39.625Z,93.70
2023-05-06T05:24:28.806Z,93.70
2023-05-06T05:27:16.922Z,93.00
2023-05-06T05:30:04.767Z,92.80
2023-05-06T05:32:56.293Z,92.50
2023-05-06T05:35:43.610Z,92.10
2023-05-06T05:38:31.667Z,91.20
2023-05-06T05:41:19.884Z,90.50
2023-05-06T05:44:07.634Z,90.10
2023-05-06T05:46:55.221Z,90.20
2023-05-06T05:49:42.994Z,90.20
2023-05-06T05:52:30.379Z,90.40
2023-05-06T05:55:17.961Z,90.00
2023-05-06T05:58:07.198Z,89.00
2023-05-06T06:00:54.612Z,89.00
2023-05-06T06:03:42.100Z,88.70
2023-05-06T06:06:29.309Z,88.50
2023-05-06T06:09:17.223Z,88.80
2023-05-06T06:12:05.231Z,88.80
2023-05-06T06:14:55.141Z,89.70
2023-05-06T06:17:44.432Z,89.40
2023-05-06T06:20:31.927Z,89.20
2023-05-06T06:23:19.016Z,88.20
2023-05-06T06:26:06.378Z,88.50
2023-05-06T06:28:53.891Z,88.40
2023-05-06T06:31:41.064Z,88.90
2023-05-06T06:34:28.162Z,87.50
2023-05-06T06:37:15.281Z,88.30
2023-05-06T06:40:02.453Z,87.80
2023-05-06T06:42:49.497Z,87.70
2023-05-06T06:45:56.185Z,87.90
2023-05-06T06:48:43.262Z,87.10
2023-05-06T06:51:31.307Z,86.60
2023-05-06T06:54:18.421Z,86.00
2023-05-06T06:57:07.012Z,86.00
2023-05-06T06:59:54.813Z,86.80
2023-05-06T07:02:41.950Z,85.30
2023-05-06T07:05:29.135Z,85.00
2023-05-06T07:08:17.018Z,84.60
2023-05-06T07:11:04.092Z,83.60
2023-05-06T07:13:51.134Z,83.20
2023-05-06T07:16:38.167Z,83.00
2023-05-06T07:19:25.228Z,80.20
2023-05-06T07:22:12.419Z,79.40
2023-05-06T07:24:59.433Z,79.90
2023-05-06T07:27:46.456Z,80.00
2023-05-06T07:30:33.486Z,79.80
2023-05-06T07:33:20.515Z,77.60
2023-05-06T07:36:07.962Z,77.50
2023-05-06T07:38:55.174Z,78.70
2023-05-06T07:41:42.181Z,77.70
2023-05-06T07:44:29.174Z,79.00
2023-05-06T07:47:29.380Z,79.10
2023-05-06T07:50:16.691Z,78.10
2023-05-06T07:53:04.109Z,77.10
2023-05-06T07:55:52.443Z,75.70
2023-05-06T07:58:39.516Z,75.60
2023-05-06T08:01:28.952Z,74.80
2023-05-06T08:04:16.247Z,75.00
2023-05-06T08:07:03.289Z,73.80
2023-05-06T08:09:50.412Z,73.70
2023-05-06T08:12:38.110Z,73.90
2023-05-06T08:15:25.350Z,74.30
2023-05-06T08:18:21.774Z,74.60
2023-05-06T08:21:09.694Z,75.70
2023-05-06T08:23:56.741Z,75.80
2023-05-06T08:26:43.862Z,76.00
2023-05-06T08:29:30.947Z,74.70
2023-05-06T08:32:18.527Z,75.50
2023-05-06T08:35:07.119Z,74.80
2023-05-06T08:37:54.140Z,75.00
2023-05-06T08:40:43.721Z,74.70
2023-05-06T08:43:33.730Z,74.30
2023-05-06T08:46:20.998Z,73.60
2023-05-06T08:49:08.160Z,73.50
2023-05-06T08:51:55.414Z,74.10
2023-05-06T08:54:43.670Z,74.00
2023-05-06T08:57:32.103Z,73.50
2023-05-06T09:00:19.240Z,73.70
2023-05-06T09:03:06.996Z,74.10
2023-05-06T09:05:54.375Z,73.40
2023-05-06T09:08:41.372Z,73.20
2023-05-06T09:11:30.096Z,73.10
2023-05-06T09:14:17.926Z,73.10
2023-05-06T09:17:05.625Z,72.20
2023-05-06T09:19:57.126Z,72.50
2023-05-06T09:22:44.252Z,72.20
2023-05-06T09:25:31.882Z,71.70
2023-05-06T09:28:18.915Z,71.60
2023-05-06T09:31:06.917Z,72.20
2023-05-06T09:33:56.176Z,72.70
2023-05-06T09:36:43.243Z,72.30
2023-05-06T09:39:30.491Z,72.30
2023-05-06T09:42:17.532Z,71.40
2023-05-06T09:45:08.316Z,72.30
2023-05-06T09:47:55.669Z,72.10
2023-05-06T09:50:43.977Z,70.70
2023-05-06T09:53:32.787Z,70.40
2023-05-06T09:56:21.469Z,70.40
2023-05-06T09:59:09.512Z,69.90
2023-05-06T10:01:58.035Z,70.20
2023-05-06T10:04:48.549Z,69.70
2023-05-06T10:07:36.451Z,69.60
2023-05-06T10:10:25.802Z,68.60
2023-05-06T10:13:13.452Z,68.80
2023-05-06T10:16:02.663Z,69.30
2023-05-06T10:18:54.312Z,69.60
2023-05-06T10:21:49.133Z,68.90
2023-05-06T10:24:47.323Z,68.70
2023-05-06T10:27:39.564Z,67.80
2023-05-06T10:30:28.353Z,67.30
2023-05-06T10:33:16.852Z,67.00
2023-05-06T10:36:22.510Z,66.50
2023-05-06T10:39:12.881Z,65.40
2023-05-06T10:41:59.957Z,65.40
2023-05-06T10:44:59.832Z,65.40
2023-05-06T10:47:55.967Z,64.90
2023-05-06T10:50:45.653Z,65.30
2023-05-06T10:54:03.798Z,63.20
2023-05-06T10:56:50.976Z,63.50
2023-05-06T10:59:46.413Z,63.30
2023-05-06T11:02:34.560Z,62.70
2023-05-06T11:05:22.662Z,61.70
2023-05-06T11:08:11.023Z,61.70
2023-05-06T11:10:57.998Z,61.70
2023-05-06T11:13:44.972Z,61.00
2023-05-06T11:16:51.711Z,59.40
2023-05-06T11:19:40.078Z,58.20
2023-05-06T11:22:39.473Z,58.70
2023-05-06T11:25:43.201Z,56.60
2023-05-06T11:28:30.467Z,57.70
2023-05-06T11:31:18.017Z,57.10
2023-05-06T11:34:11.365Z,56.30
2023-05-06T11:37:09.417Z,55.70
2023-05-06T11:39:56.379Z,57.60
2023-05-06T11:42:43.423Z,57.60
2023-05-06T11:45:41.095Z,55.70
2023-05-06T11:48:28.149Z,52.20
2023-05-06T11:51:16.127Z,53.80
2023-05-06T11:54:11.034Z,56.60
2023-05-06T11:56:58.116Z,58.70
2023-05-06T11:59:45.109Z,59.20
2023-05-06T12:02:32.123Z,59.30
2023-05-06T12:05:23.340Z,59.00
2023-05-06T12:08:23.516Z,57.30
2023-05-06T12:11:13.539Z,57.60
2023-05-06T12:14:02.384Z,59.80
2023-05-06T12:16:49.609Z,60.70
2023-05-06T12:19:38.156Z,59.40
2023-05-06T12:22:25.280Z,58.90
2023-05-06T12:25:14.133Z,56.30
2023-05-06T12:28:01.373Z,56.40
2023-05-06T12:30:48.555Z,55.70
2023-05-06T12:33:46.307Z,57.30
2023-05-06T12:36:40.033Z,58.60
2023-05-06T12:39:37.285Z,58.30
2023-05-06T12:42:24.370Z,58.40
2023-05-06T12:45:14.901Z,57.30
2023-05-06T12:48:02.880Z,57.30
2023-05-06T12:50:50.891Z,57.20
2023-05-06T12:53:37.975Z,56.90
2023-05-06T12:56:25.023Z,57.00
2023-05-06T12:59:13.649Z,55.30
2023-05-06T13:02:00.753Z,54.60
2023-05-06T13:04:49.016Z,54.00
2023-05-06T13:07:36.079Z,51.40
2023-05-06T13:10:23.157Z,51.90
2023-05-06T13:13:10.220Z,52.90
2023-05-06T13:15:57.317Z,54.70
2023-05-06T13:18:44.557Z,55.00
2023-05-06T13:21:32.227Z,53.90
2023-05-06T13:24:19.304Z,54.30
2023-05-06T13:27:06.411Z,54.90
2023-05-06T13:29:53.538Z,55.40
2023-05-06T13:32:40.635Z,56.20
2023-05-06T13:35:27.726Z,56.90
2023-05-06T13:38:14.676Z,56.60
2023-05-06T13:41:01.698Z,55.40
2023-05-06T13:43:48.728Z,53.20
2023-05-06T13:46:35.925Z,54.80
2023-05-06T13:49:22.973Z,53.80
2023-05-06T13:52:09.941Z,54.10
2023-05-06T13:54:57.632Z,53.80
2023-05-06T13:57:44.587Z,54.50
2023-05-06T14:00:31.900Z,56.00
2023-05-06T14:03:18.930Z,57.70
2023-05-06T14:06:07.678Z,58.60
2023-05-06T14:08:54.723Z,57.80
2023-05-06T14:11:41.929Z,58.70
2023-05-06T14:14:29.040Z,58.70
2023-05-06T14:17:16.072Z,58.60
2023-05-06T14:20:05.340Z,58.10
2023-05-06T14:22:52.324Z,58.60
2023-05-06T14:25:40.138Z,58.20
2023-05-06T14:28:27.116Z,58.30
2023-05-06T14:31:14.349Z,58.70
2023-05-06T14:34:02.450Z,58.10
2023-05-06T14:36:49.430Z,58.70
2023-05-06T14:39:36.481Z,58.90
2023-05-06T14:42:23.489Z,58.80
2023-05-06T14:45:11.572Z,59.20
2023-05-06T14:47:58.840Z,59.30
2023-05-06T14:50:46.053Z,59.50
2023-05-06T14:53:33.106Z,58.60
2023-05-06T14:56:21.025Z,57.80
2023-05-06T14:59:08.091Z,55.70
2023-05-06T15:01:56.673Z,54.60
2023-05-06T15:04:43.656Z,54.20
2023-05-06T15:07:30.767Z,54.50
2023-05-06T15:10:17.859Z,53.00
2023-05-06T15:13:04.913Z,53.20
2023-05-06T15:15:52.015Z,54.00
2023-05-06T15:18:41.587Z,52.80
2023-05-06T15:21:28.584Z,52.30
2023-05-06T15:24:15.950Z,50.90
2023-05-06T15:27:03.176Z,50.20
2023-05-06T15:29:50.351Z,51.30
2023-05-06T15:32:37.369Z,50.30
2023-05-06T15:35:24.455Z,50.70
2023-05-06T15:38:11.692Z,49.80
2023-05-06T15:40:58.713Z,49.10
2023-05-06T15:43:45.756Z,49.50
2023-05-06T15:46:33.296Z,49.70
2023-05-06T15:49:47.261Z,50.00
2023-05-06T15:52:27.808Z,50.70
2023-05-06T15:55:15.323Z,50.20
2023-05-06T15:58:02.546Z,49.80
2023-05-06T16:00:49.532Z,49.50
2023-05-06T16:03:37.763Z,49.70
2023-05-06T16:06:24.944Z,49.20
2023-05-06T16:09:11.974Z,48.60
2023-05-06T16:11:59.119Z,48.30
2023-05-06T16:14:46.131Z,48.40
2023-05-06T16:17:37.390Z,48.30
2023-05-06T16:20:24.441Z,48.00
2023-05-06T16:23:11.757Z,48.10
2023-05-06T16:26:00.866Z,48.30
2023-05-06T16:28:47.936Z,49.50
2023-05-06T16:31:35.093Z,50.00
2023-05-06T16:34:22.291Z,50.40
2023-05-06T16:37:09.627Z,50.40
2023-05-06T16:39:56.790Z,50.60
2023-05-06T16:42:43.848Z,50.80
2023-05-06T16:45:30.840Z,50.50
2023-05-06T16:48:18.024Z,50.30
2023-05-06T16:51:05.228Z,50.30
2023-05-06T16:53:52.531Z,50.80
2023-05-06T16:56:50.923Z,51.80
2023-05-06T16:59:39.473Z,52.70
2023-05-06T17:02:26.870Z,53.30
2023-05-06T17:05:14.135Z,54.00
2023-05-06T17:08:03.494Z,54.50
2023-05-06T17:10:50.597Z,54.60
2023-05-06T17:13:37.686Z,55.40
2023-05-06T17:16:24.901Z,55.40
2023-05-06T17:19:12.185Z,55.90
2023-05-06T17:21:59.196Z,55.30
2023-05-06T17:24:46.333Z,55.80
2023-05-06T17:27:33.371Z,56.40
2023-05-06T17:30:20.837Z,56.10
2023-05-06T17:33:08.066Z,56.20
2023-05-06T17:35:55.167Z,56.80
2023-05-06T17:38:42.684Z,57.10
2023-05-06T17:41:29.739Z,57.30
2023-05-06T17:44:18.235Z,57.50
2023-05-06T17:47:05.521Z,57.90
2023-05-06T17:49:53.383Z,58.60
2023-05-06T17:52:40.577Z,58.90
2023-05-06T17:55:27.828Z,59.30
2023-05-06T17:58:14.831Z,59.30
2023-05-06T18:01:02.739Z,59.60
2023-05-06T18:03:49.850Z,59.80
2023-05-06T18:06:36.965Z,59.90
2023-05-06T18:09:23.972Z,60.40
2023-05-06T18:12:10.997Z,60.00
2023-05-06T18:14:58.084Z,60.70
2023-05-06T18:17:46.023Z,60.80
2023-05-06T18:20:33.251Z,61.10
2023-05-06T18:23:20.312Z,61.40
2023-05-06T18:26:07.389Z,61.50
2023-05-06T18:28:54.433Z,62.10
2023-05-06T18:31:42.014Z,62.50
2023-05-06T18:34:29.112Z,63.20
2023-05-06T18:37:16.191Z,64.40
2023-05-06T18:40:04.229Z,65.30
2023-05-06T18:42:51.344Z,66.50
2023-05-06T18:45:38.408Z,67.20
2023-05-06T18:48:25.945Z,67.90
2023-05-06T18:51:14.956Z,68.40
2023-05-06T18:54:01.945Z,68.80
2023-05-06T18:56:49.020Z,69.10
2023-05-06T18:59:36.275Z,69.60
2023-05-06T19:02:23.401Z,69.80
2023-05-06T19:05:11.171Z,70.30
2023-05-06T19:07:58.436Z,70.50
2023-05-06T19:10:45.496Z,70.90
2023-05-06T19:13:32.658Z,71.20
2023-05-06T19:16:19.865Z,71.20
2023-05-06T19:19:07.315Z,71.40
2023-05-06T19:21:54.304Z,71.60
2023-05-06T19:24:41.318Z,72.00
2023-05-06T19:27:28.970Z,72.20
2023-05-06T19:30:16.010Z,72.40
2023-05-06T19:33:03.933Z,72.60
2023-05-06T19:35:50.934Z,72.70
2023-05-06T19:38:38.285Z,72.90
2023-05-06T19:41:25.685Z,73.10
2023-05-06T19:44:12.896Z,73.20
2023-05-06T19:46:59.945Z,73.60
2023-05-06T19:49:47.110Z,73.70
2023-05-06T19:52:34.570Z,73.70
2023-05-06T19:55:22.117Z,74.10
2023-05-06T19:58:09.585Z,74.50
2023-05-06T20:00:56.658Z,74.70
2023-05-06T20:03:43.704Z,74.70
2023-05-06T20:06:31.919Z,75.00
2023-05-06T20:09:19.522Z,75.00
2023-05-06T20:12:06.950Z,74.90
2023-05-06T20:14:54.958Z,75.00
2023-05-06T20:17:42.039Z,75.10
2023-05-06T20:20:34.162Z,75.30
2023-05-06T20:23:21.293Z,75.60
2023-05-06T20:26:08.373Z,75.70
2023-05-06T20:28:55.454Z,75.90
2023-05-06T20:31:46.690Z,76.00
2023-05-06T20:34:33.943Z,75.90
2023-05-06T20:37:21.307Z,76.00
2023-05-06T20:40:09.745Z,76.00
2023-05-06T20:42:56.773Z,76.20
2023-05-06T20:45:44.060Z,76.20
2023-05-06T20:48:31.972Z,76.00
2023-05-06T20:51:19.054Z,76.30
2023-05-06T20:54:06.180Z,76.70
2023-05-06T20:56:53.196Z,76.50
2023-05-06T20:59:40.496Z,76.30
2023-05-06T21:02:30.019Z,76.30
2023-05-06T21:05:17.206Z,76.50
2023-05-06T21:08:04.410Z,76.30
2023-05-06T21:10:51.447Z,76.20
2023-05-06T21:13:40.030Z,76.30
2023-05-06T21:16:27.037Z,76.40
2023-05-06T21:19:14.049Z,76.30
2023-05-06T21:22:01.005Z,76.40
2023-05-06T21:24:48.030Z,76.70
2023-05-06T21:27:35.023Z,76.50
2023-05-06T21:30:22.141Z,76.50
2023-05-06T21:33:11.086Z,76.40
2023-05-06T21:35:58.232Z,76.60
2023-05-06T21:38:48.680Z,76.50
2023-05-06T21:41:36.312Z,76.40
2023-05-06T21:44:23.308Z,76.40
2023-05-06T21:47:10.387Z,76.60
2023-05-06T21:49:57.473Z,76.60
2023-05-06T21:52:44.532Z,76.70
2023-05-06T21:55:31.612Z,76.90
2023-05-06T21:58:18.663Z,76.70
2023-05-06T22:01:05.952Z,76.40
2023-05-06T22:03:53.876Z,76.80
2023-05-06T22:06:41.095Z,76.90
2023-05-06T22:09:28.222Z,76.40
2023-05-06T22:12:15.458Z,76.60
2023-05-06T22:15:02.668Z,76.70
2023-05-06T22:17:49.814Z,76.90
2023-05-06T22:20:37.531Z,77.00
2023-05-06T22:23:25.470Z,77.10
2023-05-06T22:26:12.680Z,77.00
2023-05-06T22:28:59.767Z,76.80
2023-05-06T22:31:46.818Z,76.60
2023-05-06T22:34:33.899Z,76.30
2023-05-06T22:37:21.100Z,76.50
2023-05-06T22:40:09.169Z,76.50
2023-05-06T22:42:56.351Z,76.50
2023-05-06T22:45:44.489Z,76.50
2023-05-06T22:48:31.746Z,76.60
2023-05-06T22:51:20.963Z,76.80
2023-05-06T22:54:08.007Z,76.90
2023-05-06T22:56:55.038Z,77.80
2023-05-06T22:59:42.009Z,77.60
2023-05-06T23:02:29.444Z,77.50
2023-05-06T23:05:16.509Z,77.60
2023-05-06T23:08:03.737Z,77.60
2023-05-06T23:10:50.771Z,77.50
2023-05-06T23:13:37.830Z,77.80
2023-05-06T23:16:24.902Z,77.80
2023-05-06T23:19:21.273Z,77.50
2023-05-06T23:22:08.294Z,77.60
2023-05-06T23:24:55.757Z,77.50
2023-05-06T23:27:43.289Z,77.60
2023-05-06T23:30:30.322Z,77.30
2023-05-06T23:33:17.302Z,77.30
2023-05-06T23:36:04.500Z,77.30
2023-05-06T23:38:51.478Z,77.30
2023-05-06T23:41:38.441Z,77.50
2023-05-06T23:44:25.456Z,77.70
2023-05-06T23:47:12.473Z,77.90
2023-05-06T23:50:00.596Z,77.60
2023-05-06T23:52:47.640Z,77.50
2023-05-06T23:55:34.731Z,77.40
2023-05-06T23:58:21.787Z,77.50
